Nome, AK (99762)

12:55 AM AKDT on March 26, 2017 (GMT -0800)
MNMTA2 | | Change Station

Elev 0 ft 64.50 °N, 165.43 °W | Updated 4 hours ago

Clear
Clear
8.0 °F
Feels Like -1 °F
N
5.0
Wind Variable Wind from WNW
Gusts 5.0 mph

Today
High -- | Low -- °F
--% Chance of Precip.
Yesterday
High -- | Low -- °F
Precip. -- in
Pressure 29.98 in
Visibility 10.0 miles
Clouds Clear
Windchill -1 °F
Dew Point Not available.
Humidity Not available.
Rainfall in
Snow Depth Not available.
8:38 AM 9:37 PM
Waning Crescent, 4% visible
METAR PAOM 260753Z AUTO 00000KT 10SM CLR M18/M21 A2998 RMK SLP152 T11831206 TSNO VIA AUTODIAL
Pressure 29.98 in
Visibility 10.0 miles
Clouds Clear
Windchill -1 °F
Dew Point Not available.
Humidity Not available.
Rainfall in
Snow Depth Not available.
8:38 AM 9:37 PM
Waning Crescent, 4% visible
METAR PAOM 260753Z AUTO 00000KT 10SM CLR M18/M21 A2998 RMK SLP152 T11831206 TSNO VIA AUTODIAL

Get Severe Weather Alerts

Thanks for signing up!

Be on the lookout for a verification email in your inbox.

You'll start receiving the daily forecast at 8 AM.

×

10-Day Weather Forecast

Almanac

Astronomy

Mar. 26, 2017 Rise Set
Actual Time
Civil Twilight
Nautical Twilight
Astronomical Twilight
Moon
Length of Visible Light
Length of Day
Tomorrow will be .
, % of the Moon is Illuminated

Today's Extremes

State Highs State Lows

Community

WunderPhotos

Upload Photos

1,962,540 photos uploaded!

WunderBlog® & News

Nearby

Air Quality

  Air Quality AQ Index Pollutant
Not available.

Snow Depth

Station Depth Elevation

Earthquake Activity

City Distance Mag. Time & Date
Minimum magnitude displayed is 2.5.

Earthquake Activity

City Distance Mag. Time & Date
Minimum magnitude displayed is 2.5.

Coastal Water Temperatures

Place Temperature

Stations

Nearby Weather Stations

Station Location Temp. Windchill Dew Point Humidity Wind Precip. Elev Updated Type
                   

Watches & Warnings

There are currently no watches in effect.